Terminal Aerodrome Forecast
Issued by NWS

Home | Current Version | Previous Version | Text Only | Print | Product List | Glossary On
Versions: 1 2 3 4 5 6 7 8 9 10 11 12 13 14
436
FTUS43 KIND 241721
TAFBMG
TAF
KBMG 241721Z 2418/2518 34006KT 6SM -RA BR BKN035
      TEMPO 2418/2420 BKN009
     FM250000 33006KT 5SM SHRA BR VCTS OVC035CB
     FM250600 30008KT 6SM BR OVC008
     FM251600 30010KT P6SM OVC010=

USA.gov is the U.S. government's official web portal to all federal, state and local government web resources and services.